Time;durP1;ratioP1;P1;durP2;ratioP2;P2;SDS_P1;SDS_P2;PMS_P1;PMS_P2;Temp;Humidity;BMP_temperature;BMP_pressure;BME280_temperature;BME280_humidity;BME280_pressure;Samples;Min_cycle;Max_cycle;Signal;HPM_P1;HPM_P2
2022/05/17 00:02:03;;;;;;;7.10;5.60;;;;;;;;;;5113582;27;20039;-57
2022/05/17 00:04:28;;;;;;;6.35;5.25;;;;;;;;;;5119214;27;20047;-57
2022/05/17 00:06:54;;;;;;;9.05;6.38;;;;;;;;;;5119029;27;20452;-59
2022/05/17 00:09:19;;;;;;;8.40;6.25;;;;;;;;;;5114507;27;20496;-58
2022/05/17 00:11:45;;;;;;;9.18;5.90;;;;;;;;;;5109403;27;20083;-58
2022/05/17 00:14:11;;;;;;;9.52;6.40;;;;;;;;;;5116400;27;20066;-56
2022/05/17 00:16:36;;;;;;;6.45;5.85;;;;;;;;;;5115643;27;20534;-56
2022/05/17 00:19:01;;;;;;;21.40;6.93;;;;;;;;;;5117385;27;20039;-57
2022/05/17 00:21:27;;;;;;;11.65;6.60;;;;;;;;;;5112192;27;20138;-57
2022/05/17 00:23:52;;;;;;;15.18;5.65;;;;;;;;;;5117578;27;20093;-58
2022/05/17 00:26:17;;;;;;;7.47;6.13;;;;;;;;;;5117614;27;20082;-57
2022/05/17 00:28:43;;;;;;;10.25;5.90;;;;;;;;;;5119660;27;20051;-58
2022/05/17 00:31:08;;;;;;;9.90;6.47;;;;;;;;;;5115878;27;20412;-57
2022/05/17 00:33:34;;;;;;;8.88;5.47;;;;;;;;;;5114632;27;20125;-58
2022/05/17 00:35:59;;;;;;;10.40;6.78;;;;;;;;;;5113542;27;20035;-58
2022/05/17 00:38:24;;;;;;;9.35;6.63;;;;;;;;;;5122234;27;20049;-58
2022/05/17 00:40:50;;;;;;;8.05;6.03;;;;;;;;;;5116637;27;20051;-57
2022/05/17 00:46:27;;;;;;;13.80;6.90;;;;;;;;;;5109778;27;20045;-57
2022/05/17 00:48:53;;;;;;;8.52;7.68;;;;;;;;;;5114376;27;20528;-57
2022/05/17 00:51:21;;;;;;;10.43;6.25;;;;;;;;;;5117967;27;20043;-57
2022/05/17 00:53:46;;;;;;;12.05;8.20;;;;;;;;;;5120098;27;20073;-54
2022/05/17 00:56:19;;;;;;;8.90;8.02;;;;;;;;;;5117418;27;20079;-55
2022/05/17 00:58:48;;;;;;;5.85;5.25;;;;;;;;;;5114840;27;20055;-55
2022/05/17 01:01:15;;;;;;;11.20;7.75;;;;;;;;;;5113046;27;20044;-52
2022/05/17 01:03:44;;;;;;;12.85;7.70;;;;;;;;;;5114259;28;20067;-55
2022/05/17 01:06:10;;;;;;;23.67;7.45;;;;;;;;;;5108920;27;20126;-54
2022/05/17 01:08:35;;;;;;;17.33;7.68;;;;;;;;;;5106934;28;20491;-55
2022/05/17 01:11:00;;;;;;;11.75;7.97;;;;;;;;;;5116296;28;20047;-53
2022/05/17 01:16:10;;;;;;;10.95;7.30;;;;;;;;;;5114935;27;20572;-54
2022/05/17 01:18:37;;;;;;;10.95;6.28;;;;;;;;;;5112997;28;20098;-55
2022/05/17 01:21:02;;;;;;;17.88;6.60;;;;;;;;;;5115620;27;20126;-56
2022/05/17 01:23:28;;;;;;;12.10;7.80;;;;;;;;;;5121629;27;20731;-55
2022/05/17 01:25:54;;;;;;;11.80;6.25;;;;;;;;;;5109606;28;20036;-56
2022/05/17 01:28:24;;;;;;;10.15;7.88;;;;;;;;;;5106597;27;20070;-56
2022/05/17 01:30:49;;;;;;;8.63;6.07;;;;;;;;;;5104304;28;20036;-55
2022/05/17 01:33:16;;;;;;;11.18;7.60;;;;;;;;;;5099407;28;20050;-55
2022/05/17 01:35:41;;;;;;;11.60;6.88;;;;;;;;;;5115728;28;20068;-54
2022/05/17 01:38:07;;;;;;;16.70;8.25;;;;;;;;;;5115813;28;20215;-55
2022/05/17 01:40:33;;;;;;;15.70;7.82;;;;;;;;;;5113175;28;20058;-55
2022/05/17 01:42:58;;;;;;;9.45;7.05;;;;;;;;;;5107814;27;20051;-56
2022/05/17 01:45:23;;;;;;;23.40;7.03;;;;;;;;;;5105577;28;20574;-55
2022/05/17 01:47:49;;;;;;;7.50;6.75;;;;;;;;;;5107252;27;20103;-55
2022/05/17 01:50:14;;;;;;;12.02;5.82;;;;;;;;;;5116016;27;20040;-56
2022/05/17 01:52:39;;;;;;;6.97;5.85;;;;;;;;;;5110547;28;20518;-56
2022/05/17 01:55:05;;;;;;;10.65;7.90;;;;;;;;;;5117971;28;20089;-56
2022/05/17 01:57:30;;;;;;;13.43;5.68;;;;;;;;;;5117257;28;20748;-56
2022/05/17 01:59:55;;;;;;;8.50;6.40;;;;;;;;;;5117666;28;20520;-56
2022/05/17 02:02:21;;;;;;;14.90;6.22;;;;;;;;;;5117577;28;20115;-55
2022/05/17 02:04:46;;;;;;;11.63;8.27;;;;;;;;;;5118952;28;20042;-55
2022/05/17 02:07:11;;;;;;;9.10;7.03;;;;;;;;;;5121467;28;20039;-56
2022/05/17 02:09:37;;;;;;;9.50;6.68;;;;;;;;;;5108142;28;20078;-57
2022/05/17 02:12:02;;;;;;;10.00;7.13;;;;;;;;;;5108789;28;20679;-56
2022/05/17 02:14:28;;;;;;;10.55;7.25;;;;;;;;;;5109396;28;20526;-57
2022/05/17 02:16:53;;;;;;;9.93;5.85;;;;;;;;;;5117566;27;20067;-57
2022/05/17 02:19:23;;;;;;;10.48;6.57;;;;;;;;;;5116346;27;20047;-57
2022/05/17 02:21:48;;;;;;;9.45;7.32;;;;;;;;;;5123718;27;20126;-57
2022/05/17 02:24:14;;;;;;;13.35;8.38;;;;;;;;;;5120101;27;20123;-56
2022/05/17 02:26:39;;;;;;;11.02;6.97;;;;;;;;;;5109916;27;20091;-56
2022/05/17 02:29:05;;;;;;;10.35;6.63;;;;;;;;;;5115389;27;20499;-56
2022/05/17 02:31:30;;;;;;;14.07;8.63;;;;;;;;;;5117437;27;20043;-55
2022/05/17 02:33:56;;;;;;;9.80;6.80;;;;;;;;;;5107188;27;20074;-57
2022/05/17 02:36:21;;;;;;;21.25;8.57;;;;;;;;;;5116444;27;20035;-56
2022/05/17 02:38:47;;;;;;;11.40;6.68;;;;;;;;;;5116908;27;20518;-56
2022/05/17 02:41:12;;;;;;;11.93;5.90;;;;;;;;;;5115311;27;20070;-57
2022/05/17 02:43:38;;;;;;;15.35;5.55;;;;;;;;;;5119982;27;20043;-57
2022/05/17 02:46:04;;;;;;;22.10;8.00;;;;;;;;;;5118778;27;20055;-56
2022/05/17 02:48:29;;;;;;;13.38;6.32;;;;;;;;;;5122605;27;20571;-56
2022/05/17 02:50:55;;;;;;;8.15;6.38;;;;;;;;;;5114484;27;20039;-54
2022/05/17 02:53:21;;;;;;;16.65;6.72;;;;;;;;;;5108330;27;20759;-54
2022/05/17 02:55:46;;;;;;;20.30;6.10;;;;;;;;;;5104170;27;20152;-53
2022/05/17 02:58:12;;;;;;;19.10;9.85;;;;;;;;;;5110255;27;20122;-55
2022/05/17 03:00:37;;;;;;;12.95;7.40;;;;;;;;;;5115611;27;20123;-54
2022/05/17 03:03:02;;;;;;;9.95;6.65;;;;;;;;;;5116769;27;20040;-55
2022/05/17 03:05:27;;;;;;;20.42;8.35;;;;;;;;;;5113130;27;20563;-54
2022/05/17 03:07:53;;;;;;;11.35;6.97;;;;;;;;;;5109803;27;20158;-55
2022/05/17 03:10:19;;;;;;;10.40;6.25;;;;;;;;;;5104274;27;20040;-55
2022/05/17 03:12:44;;;;;;;18.50;7.97;;;;;;;;;;5115172;27;20628;-53
2022/05/17 03:15:11;;;;;;;12.38;7.53;;;;;;;;;;5123365;27;20051;-54
2022/05/17 03:17:36;;;;;;;11.65;8.57;;;;;;;;;;5118973;27;20059;-54
2022/05/17 03:20:02;;;;;;;8.38;6.72;;;;;;;;;;5121219;27;20039;-55
2022/05/17 03:22:29;;;;;;;7.65;6.40;;;;;;;;;;5118297;27;20240;-56
2022/05/17 03:24:54;;;;;;;10.55;6.63;;;;;;;;;;5110292;27;20043;-55
2022/05/17 03:27:20;;;;;;;9.18;5.55;;;;;;;;;;5106783;27;20047;-55
2022/05/17 03:29:45;;;;;;;10.32;7.57;;;;;;;;;;5117805;27;20066;-54
2022/05/17 03:32:11;;;;;;;19.55;9.30;;;;;;;;;;5116971;27;20130;-55
2022/05/17 03:34:36;;;;;;;15.30;8.07;;;;;;;;;;5121958;27;20716;-55
2022/05/17 03:37:02;;;;;;;10.00;7.20;;;;;;;;;;5121946;27;20427;-55
2022/05/17 03:39:27;;;;;;;17.20;8.82;;;;;;;;;;5114352;27;20046;-56
2022/05/17 03:41:53;;;;;;;11.75;7.53;;;;;;;;;;5120766;27;20097;-56
2022/05/17 03:44:18;;;;;;;10.77;5.68;;;;;;;;;;5122745;27;20522;-55
2022/05/17 03:46:43;;;;;;;13.80;8.05;;;;;;;;;;5120598;27;20499;-55
2022/05/17 03:49:09;;;;;;;14.65;6.60;;;;;;;;;;5118997;27;20051;-54
2022/05/17 03:51:35;;;;;;;14.35;6.75;;;;;;;;;;5117768;27;20093;-56
2022/05/17 03:54:00;;;;;;;6.57;5.60;;;;;;;;;;5119428;27;20061;-56
2022/05/17 03:56:26;;;;;;;17.17;6.38;;;;;;;;;;5117088;27;20094;-56
2022/05/17 03:58:51;;;;;;;10.65;6.78;;;;;;;;;;5115972;27;20087;-55
2022/05/17 04:01:16;;;;;;;17.70;7.05;;;;;;;;;;5120546;27;20051;-56
2022/05/17 04:03:43;;;;;;;14.80;8.20;;;;;;;;;;5098684;27;20385;-54
2022/05/17 04:06:08;;;;;;;10.48;7.40;;;;;;;;;;5120237;27;20406;-56
2022/05/17 04:08:34;;;;;;;9.20;6.43;;;;;;;;;;5119784;27;20043;-53
2022/05/17 04:11:00;;;;;;;9.27;7.68;;;;;;;;;;5120407;27;20516;-56
2022/05/17 04:13:29;;;;;;;8.88;6.70;;;;;;;;;;5117756;27;20157;-56
2022/05/17 04:15:55;;;;;;;8.27;6.07;;;;;;;;;;5107430;27;20051;-53
2022/05/17 04:18:21;;;;;;;15.93;6.22;;;;;;;;;;5117303;27;20112;-54
2022/05/17 04:20:46;;;;;;;9.48;6.90;;;;;;;;;;5116986;27;20039;-55
2022/05/17 04:23:11;;;;;;;37.22;10.20;;;;;;;;;;5121525;27;20421;-56
2022/05/17 04:25:36;;;;;;;10.98;8.82;;;;;;;;;;5119699;27;20043;-55
2022/05/17 04:28:02;;;;;;;10.70;7.82;;;;;;;;;;5121385;27;20076;-56
2022/05/17 04:30:28;;;;;;;13.95;7.60;;;;;;;;;;5120784;27;20035;-56
2022/05/17 04:32:53;;;;;;;26.85;7.38;;;;;;;;;;5118381;27;20452;-56
2022/05/17 04:35:19;;;;;;;10.00;6.90;;;;;;;;;;5119178;27;20046;-56
2022/05/17 04:37:44;;;;;;;11.43;6.30;;;;;;;;;;5117531;27;20079;-55
2022/05/17 04:40:10;;;;;;;13.30;6.90;;;;;;;;;;5115262;27;20036;-56
2022/05/17 04:42:36;;;;;;;21.17;7.10;;;;;;;;;;5104107;27;20059;-55
2022/05/17 04:45:02;;;;;;;11.00;9.90;;;;;;;;;;5116623;27;20487;-56
2022/05/17 04:47:28;;;;;;;14.52;7.03;;;;;;;;;;5120196;27;20039;-56
2022/05/17 04:49:54;;;;;;;11.27;7.18;;;;;;;;;;5119893;27;20091;-56
2022/05/17 04:52:19;;;;;;;14.10;7.55;;;;;;;;;;5119538;27;20126;-56
2022/05/17 04:54:44;;;;;;;11.90;7.28;;;;;;;;;;5119869;27;20047;-55
2022/05/17 04:57:10;;;;;;;9.57;6.43;;;;;;;;;;5119184;27;20027;-56
2022/05/17 04:59:36;;;;;;;16.23;9.00;;;;;;;;;;5115920;27;20050;-56
2022/05/17 05:02:01;;;;;;;12.70;5.72;;;;;;;;;;5119264;27;20046;-55
2022/05/17 05:04:26;;;;;;;12.30;8.10;;;;;;;;;;5098549;28;20131;-56
2022/05/17 05:06:52;;;;;;;12.32;6.22;;;;;;;;;;5117643;27;20047;-56
2022/05/17 05:09:17;;;;;;;10.35;7.00;;;;;;;;;;5121691;27;20130;-55
2022/05/17 05:11:42;;;;;;;15.70;8.10;;;;;;;;;;5113856;27;20042;-55
2022/05/17 05:14:09;;;;;;;10.23;6.10;;;;;;;;;;5111671;27;20047;-55
2022/05/17 05:16:36;;;;;;;13.50;6.82;;;;;;;;;;5116950;28;20340;-55
2022/05/17 05:19:01;;;;;;;18.90;7.97;;;;;;;;;;5117683;28;20093;-56
2022/05/17 05:21:26;;;;;;;12.85;6.40;;;;;;;;;;5120146;28;20047;-55
2022/05/17 05:23:52;;;;;;;34.20;7.00;;;;;;;;;;5120560;28;20070;-56
2022/05/17 05:26:18;;;;;;;15.43;8.25;;;;;;;;;;5114418;27;20492;-55
2022/05/17 05:28:44;;;;;;;9.55;7.40;;;;;;;;;;5111856;27;20058;-56
2022/05/17 05:31:12;;;;;;;18.35;6.68;;;;;;;;;;5102271;28;20074;-55
2022/05/17 05:33:39;;;;;;;13.50;7.65;;;;;;;;;;5106825;28;20044;-56
2022/05/17 05:36:05;;;;;;;24.88;10.38;;;;;;;;;;5110694;28;20141;-56
2022/05/17 05:38:30;;;;;;;8.10;6.38;;;;;;;;;;5110243;28;20547;-55
2022/05/17 05:40:55;;;;;;;26.65;8.57;;;;;;;;;;5113522;27;20554;-57
2022/05/17 05:43:21;;;;;;;20.13;11.18;;;;;;;;;;5108090;28;20088;-57
2022/05/17 05:45:46;;;;;;;17.27;7.60;;;;;;;;;;5117086;28;20105;-56
2022/05/17 05:48:11;;;;;;;18.15;7.82;;;;;;;;;;5111801;27;20039;-57
2022/05/17 05:50:37;;;;;;;13.85;8.23;;;;;;;;;;5114374;27;20043;-56
2022/05/17 05:53:07;;;;;;;23.17;10.15;;;;;;;;;;5120626;27;20123;-53
2022/05/17 05:55:34;;;;;;;15.17;8.57;;;;;;;;;;5122388;27;20043;-56
2022/05/17 05:58:00;;;;;;;10.60;7.60;;;;;;;;;;5118958;27;20282;-56
2022/05/17 06:00:25;;;;;;;16.42;6.57;;;;;;;;;;5116742;27;20051;-55
2022/05/17 06:02:51;;;;;;;9.35;7.57;;;;;;;;;;5113575;27;20293;-57
2022/05/17 06:05:16;;;;;;;38.20;25.73;;;;;;;;;;5110071;27;20091;-54
2022/05/17 06:07:41;;;;;;;24.73;9.43;;;;;;;;;;5119751;27;20086;-54
2022/05/17 06:10:08;;;;;;;16.48;8.82;;;;;;;;;;5114995;27;20126;-54
2022/05/17 06:12:33;;;;;;;12.38;7.18;;;;;;;;;;5113607;27;20044;-54
2022/05/17 06:14:58;;;;;;;8.65;7.80;;;;;;;;;;5117798;27;20554;-54
2022/05/17 06:17:27;;;;;;;11.75;6.93;;;;;;;;;;5118290;27;20032;-54
2022/05/17 06:19:53;;;;;;;12.57;5.95;;;;;;;;;;5111716;27;20046;-52
2022/05/17 06:22:18;;;;;;;11.73;7.25;;;;;;;;;;5112512;27;20047;-53
2022/05/17 06:24:45;;;;;;;11.00;8.50;;;;;;;;;;5110516;27;20051;-53
2022/05/17 06:27:10;;;;;;;13.70;9.45;;;;;;;;;;5114829;27;20111;-53
2022/05/17 06:29:35;;;;;;;24.92;6.20;;;;;;;;;;5113398;27;20057;-54
2022/05/17 06:32:01;;;;;;;16.15;7.20;;;;;;;;;;5120931;27;20103;-52
2022/05/17 06:34:26;;;;;;;44.95;6.97;;;;;;;;;;5123632;27;20495;-56
2022/05/17 06:36:51;;;;;;;6.72;5.50;;;;;;;;;;5121224;27;20039;-50
2022/05/17 06:39:17;;;;;;;11.90;6.70;;;;;;;;;;5120208;27;20058;-45
2022/05/17 06:41:43;;;;;;;22.20;9.57;;;;;;;;;;5120282;27;20040;-44
2022/05/17 06:44:08;;;;;;;18.90;8.10;;;;;;;;;;5122064;27;20051;-43
2022/05/17 06:46:33;;;;;;;11.15;6.78;;;;;;;;;;5116299;27;20047;-47
2022/05/17 06:48:59;;;;;;;12.35;6.00;;;;;;;;;;5113464;27;20074;-43
2022/05/17 06:51:24;;;;;;;13.02;7.20;;;;;;;;;;5122597;27;20061;-50
2022/05/17 06:53:49;;;;;;;25.33;8.95;;;;;;;;;;5115652;27;20073;-46
2022/05/17 06:56:15;;;;;;;9.10;5.10;;;;;;;;;;5117713;27;20388;-47
2022/05/17 06:58:40;;;;;;;31.40;8.40;;;;;;;;;;5122851;27;20640;-45
2022/05/17 07:01:05;;;;;;;13.10;8.95;;;;;;;;;;5101657;27;20142;-51
2022/05/17 07:03:31;;;;;;;32.03;7.85;;;;;;;;;;5118620;27;20507;-45
2022/05/17 07:05:56;;;;;;;15.70;5.97;;;;;;;;;;5117965;27;20112;-47
2022/05/17 07:08:22;;;;;;;11.50;6.60;;;;;;;;;;5121891;27;20061;-45
2022/05/17 07:13:31;;;;;;;14.45;6.50;;;;;;;;;;5120108;27;20046;-48
2022/05/17 07:15:57;;;;;;;14.38;8.23;;;;;;;;;;5119146;27;20039;-49
2022/05/17 07:18:24;;;;;;;16.77;7.28;;;;;;;;;;5112102;27;20039;-47
2022/05/17 07:20:49;;;;;;;9.40;6.95;;;;;;;;;;5111490;27;20055;-47
2022/05/17 07:23:15;;;;;;;15.25;7.32;;;;;;;;;;5117520;27;20506;-44
2022/05/17 07:25:41;;;;;;;9.32;6.85;;;;;;;;;;5110272;27;20122;-46
2022/05/17 07:28:07;;;;;;;17.90;9.50;;;;;;;;;;5110223;27;20560;-48
2022/05/17 07:30:33;;;;;;;22.73;9.13;;;;;;;;;;5111039;27;20046;-47
2022/05/17 07:32:58;;;;;;;11.40;6.78;;;;;;;;;;5106951;27;20510;-50
2022/05/17 07:35:23;;;;;;;14.35;7.45;;;;;;;;;;5114382;27;20047;-45
2022/05/17 07:37:49;;;;;;;8.60;5.57;;;;;;;;;;5112626;27;20023;-48
2022/05/17 07:40:15;;;;;;;10.23;7.05;;;;;;;;;;5119956;27;20120;-50
2022/05/17 07:42:40;;;;;;;13.82;7.22;;;;;;;;;;5115990;27;20046;-47
2022/05/17 07:45:06;;;;;;;8.00;5.18;;;;;;;;;;5111196;27;20040;-47
2022/05/17 07:47:33;;;;;;;6.90;4.30;;;;;;;;;;5115212;27;20047;-50
2022/05/17 07:49:58;;;;;;;7.57;5.30;;;;;;;;;;5117404;27;20074;-49
2022/05/17 07:52:23;;;;;;;6.20;4.72;;;;;;;;;;5118448;27;20074;-50
2022/05/17 07:54:49;;;;;;;10.77;5.55;;;;;;;;;;5100725;27;20128;-47
2022/05/17 07:57:14;;;;;;;16.95;5.55;;;;;;;;;;5113651;27;20536;-47
2022/05/17 07:59:39;;;;;;;15.85;7.55;;;;;;;;;;5113387;27;20046;-51
2022/05/17 08:02:06;;;;;;;14.23;5.97;;;;;;;;;;5114274;27;20047;-50
2022/05/17 08:04:31;;;;;;;20.23;9.45;;;;;;;;;;5112646;27;20059;-48
2022/05/17 08:06:57;;;;;;;28.10;8.20;;;;;;;;;;5117438;27;20048;-48
2022/05/17 08:09:23;;;;;;;9.00;6.60;;;;;;;;;;5112740;27;20050;-46
2022/05/17 08:11:49;;;;;;;12.38;6.85;;;;;;;;;;5117282;27;20434;-49
2022/05/17 08:14:15;;;;;;;8.98;6.38;;;;;;;;;;5109656;27;20044;-47
2022/05/17 08:16:42;;;;;;;7.20;5.50;;;;;;;;;;5110450;27;20650;-47
2022/05/17 08:19:08;;;;;;;12.88;5.50;;;;;;;;;;5103337;27;20643;-47
2022/05/17 08:21:33;;;;;;;9.68;6.63;;;;;;;;;;5108269;27;20044;-45
2022/05/17 08:23:59;;;;;;;40.63;12.05;;;;;;;;;;5098695;27;20035;-44
2022/05/17 08:29:09;;;;;;;96.78;18.17;;;;;;;;;;5115615;27;20066;-48
2022/05/17 08:31:34;;;;;;;9.52;3.75;;;;;;;;;;5106870;27;20054;-49
2022/05/17 08:34:00;;;;;;;10.30;6.13;;;;;;;;;;5107223;27;20618;-49
2022/05/17 08:36:25;;;;;;;52.78;12.57;;;;;;;;;;5116184;27;20543;-47
2022/05/17 08:38:51;;;;;;;9.30;4.22;;;;;;;;;;5118195;27;20504;-48
2022/05/17 08:41:19;;;;;;;15.73;5.75;;;;;;;;;;5114431;27;20484;-51
2022/05/17 08:43:48;;;;;;;16.45;6.07;;;;;;;;;;5106788;27;20031;-49
2022/05/17 08:46:21;;;;;;;11.82;5.60;;;;;;;;;;5112736;27;20077;-48
2022/05/17 08:48:52;;;;;;;8.10;6.53;;;;;;;;;;5105478;27;20544;-49
2022/05/17 08:51:24;;;;;;;10.77;6.30;;;;;;;;;;5117655;27;20122;-51
2022/05/17 08:53:49;;;;;;;11.77;5.40;;;;;;;;;;5107357;27;20052;-48
2022/05/17 08:56:15;;;;;;;6.78;2.50;;;;;;;;;;5115523;27;20043;-46
2022/05/17 08:58:43;;;;;;;20.13;8.30;;;;;;;;;;5121290;27;20074;-50
2022/05/17 09:01:20;;;;;;;18.13;8.43;;;;;;;;;;5116681;27;20120;-49
2022/05/17 09:03:57;;;;;;;20.30;7.80;;;;;;;;;;5108383;27;20050;-47
2022/05/17 09:06:34;;;;;;;5.13;3.33;;;;;;;;;;5108712;27;20055;-50
2022/05/17 09:09:10;;;;;;;6.13;3.65;;;;;;;;;;5111551;27;20146;-46
2022/05/17 09:11:35;;;;;;;12.30;3.72;;;;;;;;;;5111001;27;20420;-47
2022/05/17 09:14:04;;;;;;;11.30;5.18;;;;;;;;;;5110683;27;20043;-49
2022/05/17 09:16:36;;;;;;;10.25;2.83;;;;;;;;;;5105711;28;20047;-49
2022/05/17 09:19:01;;;;;;;9.32;3.60;;;;;;;;;;5104755;28;20047;-50
2022/05/17 09:21:34;;;;;;;5.88;2.97;;;;;;;;;;5105554;27;20040;-52
2022/05/17 09:24:02;;;;;;;7.13;3.10;;;;;;;;;;5105598;28;20047;-51
2022/05/17 09:26:28;;;;;;;4.35;2.78;;;;;;;;;;5117587;27;20051;-51
2022/05/17 09:28:59;;;;;;;6.78;2.88;;;;;;;;;;5115473;27;20047;-51
2022/05/17 09:31:30;;;;;;;11.25;5.55;;;;;;;;;;5118064;27;20047;-49
2022/05/17 09:33:56;;;;;;;6.05;4.93;;;;;;;;;;5105729;27;20163;-50
2022/05/17 09:36:23;;;;;;;3.80;1.80;;;;;;;;;;5115452;27;20059;-50
2022/05/17 09:38:50;;;;;;;3.88;2.72;;;;;;;;;;5119141;27;20062;-49
2022/05/17 09:41:17;;;;;;;15.45;5.25;;;;;;;;;;5108194;27;20040;-52
2022/05/17 09:43:45;;;;;;;8.65;4.93;;;;;;;;;;5118200;27;20070;-53
2022/05/17 09:46:17;;;;;;;5.78;3.45;;;;;;;;;;5113870;27;20106;-52
2022/05/17 09:54:34;;;;;;;3.67;2.60;;;;;;;;;;5112840;27;20098;-48
2022/05/17 09:57:13;;;;;;;9.90;4.30;;;;;;;;;;5106068;27;20075;-49
2022/05/17 09:59:39;;;;;;;5.95;4.22;;;;;;;;;;5117332;27;20172;-51
2022/05/17 10:02:05;;;;;;;5.85;2.55;;;;;;;;;;5105386;27;20152;-49
2022/05/17 10:04:30;;;;;;;3.50;2.50;;;;;;;;;;5110805;27;20127;-50
2022/05/17 10:06:56;;;;;;;14.75;6.45;;;;;;;;;;5109696;27;20039;-50
2022/05/17 10:09:32;;;;;;;5.30;2.08;;;;;;;;;;5111581;27;20048;-51
2022/05/17 10:12:09;;;;;;;9.32;6.38;;;;;;;;;;5110717;27;20028;-50
2022/05/17 10:14:48;;;;;;;25.23;5.78;;;;;;;;;;5109963;27;20043;-52
2022/05/17 10:17:28;;;;;;;5.30;3.35;;;;;;;;;;5111569;27;20137;-49
2022/05/17 10:19:55;;;;;;;12.05;6.05;;;;;;;;;;5118725;27;20593;-51
2022/05/17 10:22:22;;;;;;;8.88;4.28;;;;;;;;;;5118590;27;20046;-51
2022/05/17 10:25:11;;;;;;;10.07;3.25;;;;;;;;;;5111305;27;20103;-51
2022/05/17 10:27:37;;;;;;;9.05;3.53;;;;;;;;;;5065516;27;20071;-51
2022/05/17 10:30:06;;;;;;;4.10;3.25;;;;;;;;;;5118747;27;20663;-48
2022/05/17 10:32:51;;;;;;;3.60;2.05;;;;;;;;;;5105727;27;20040;-46
2022/05/17 10:35:23;;;;;;;7.97;2.63;;;;;;;;;;5112959;27;20035;-47
2022/05/17 10:37:53;;;;;;;3.92;2.35;;;;;;;;;;5114688;27;20436;-51
2022/05/17 10:40:29;;;;;;;8.35;3.03;;;;;;;;;;5122546;27;20046;-52
2022/05/17 10:42:56;;;;;;;8.18;5.10;;;;;;;;;;5121478;27;20106;-53
2022/05/17 10:45:23;;;;;;;12.98;3.28;;;;;;;;;;5122779;27;20605;-48
2022/05/17 10:47:56;;;;;;;10.35;4.32;;;;;;;;;;5122649;27;20106;-50
2022/05/17 10:50:28;;;;;;;6.65;3.08;;;;;;;;;;5116542;27;20027;-46
2022/05/17 10:52:56;;;;;;;6.45;4.35;;;;;;;;;;5118019;27;20046;-50
2022/05/17 10:55:25;;;;;;;7.78;3.25;;;;;;;;;;5122749;27;20043;-48
2022/05/17 10:57:55;;;;;;;8.48;2.95;;;;;;;;;;5109976;27;20089;-48
2022/05/17 11:00:33;;;;;;;8.60;3.25;;;;;;;;;;5110703;27;20058;-49
2022/05/17 11:03:18;;;;;;;5.93;2.80;;;;;;;;;;5121530;27;20433;-50
2022/05/17 11:05:53;;;;;;;5.38;3.45;;;;;;;;;;5122447;27;20049;-51
2022/05/17 11:08:18;;;;;;;2.92;1.95;;;;;;;;;;5113419;27;20039;-52
2022/05/17 11:10:52;;;;;;;12.23;10.00;;;;;;;;;;5122444;27;20140;-46
2022/05/17 11:13:28;;;;;;;15.90;6.38;;;;;;;;;;5122585;27;20047;-50
2022/05/17 11:16:01;;;;;;;6.53;4.85;;;;;;;;;;5116234;27;20053;-51
2022/05/17 11:18:38;;;;;;;15.10;7.43;;;;;;;;;;5119608;27;20692;-50
2022/05/17 11:21:07;;;;;;;21.15;6.75;;;;;;;;;;5123194;27;20055;-47
2022/05/17 11:23:53;;;;;;;7.93;7.25;;;;;;;;;;5120940;27;20042;-51
2022/05/17 11:26:21;;;;;;;16.63;5.60;;;;;;;;;;5115175;27;20078;-46
2022/05/17 11:29:05;;;;;;;4.65;3.38;;;;;;;;;;5109193;27;20518;-49
2022/05/17 11:31:39;;;;;;;10.77;5.55;;;;;;;;;;5120514;27;20047;-51
2022/05/17 11:34:23;;;;;;;8.82;4.10;;;;;;;;;;5120341;27;20043;-49
2022/05/17 11:36:49;;;;;;;10.07;4.70;;;;;;;;;;5121460;27;20491;-51
2022/05/17 11:39:40;;;;;;;9.25;3.38;;;;;;;;;;5117341;27;20043;-51
2022/05/17 11:42:07;;;;;;;8.88;5.45;;;;;;;;;;5107163;27;20138;-50
2022/05/17 11:44:43;;;;;;;13.13;5.38;;;;;;;;;;5108849;27;20035;-50
2022/05/17 11:47:34;;;;;;;13.00;11.82;;;;;;;;;;5111015;27;20063;-52
2022/05/17 11:50:20;;;;;;;14.63;6.40;;;;;;;;;;5078507;27;20043;-50
2022/05/17 11:52:47;;;;;;;3.58;2.92;;;;;;;;;;5116877;27;20298;-52
2022/05/17 11:55:16;;;;;;;4.03;2.17;;;;;;;;;;5112289;27;20039;-51
2022/05/17 11:57:42;;;;;;;6.15;3.67;;;;;;;;;;5120652;27;20141;-50
2022/05/17 12:00:09;;;;;;;9.18;4.75;;;;;;;;;;5118120;27;20127;-48
2022/05/17 12:02:43;;;;;;;5.47;3.80;;;;;;;;;;5118742;27;20499;-52
2022/05/17 12:05:12;;;;;;;27.52;7.68;;;;;;;;;;5118942;27;20040;-49
2022/05/17 12:07:38;;;;;;;3.85;2.85;;;;;;;;;;5112731;27;20039;-49
2022/05/17 12:10:16;;;;;;;6.03;2.90;;;;;;;;;;5106492;27;20035;-51
2022/05/17 12:12:45;;;;;;;5.80;4.05;;;;;;;;;;5117596;27;20047;-52
2022/05/17 12:15:13;;;;;;;7.65;2.55;;;;;;;;;;5116191;27;20053;-50
2022/05/17 12:17:44;;;;;;;5.00;3.40;;;;;;;;;;5118736;27;20126;-49
2022/05/17 12:20:20;;;;;;;12.23;3.15;;;;;;;;;;5117357;27;20054;-51
2022/05/17 12:22:49;;;;;;;23.15;15.57;;;;;;;;;;5118160;27;20043;-50
2022/05/17 12:25:20;;;;;;;6.23;4.40;;;;;;;;;;5113705;27;20050;-51
2022/05/17 12:27:46;;;;;;;4.43;4.00;;;;;;;;;;5118827;27;20130;-50
2022/05/17 12:33:07;;;;;;;6.00;3.97;;;;;;;;;;5114026;27;20038;-51
2022/05/17 12:35:32;;;;;;;2.63;2.08;;;;;;;;;;5111882;27;20048;-51
2022/05/17 12:37:58;;;;;;;16.42;4.72;;;;;;;;;;5122170;27;20041;-45
2022/05/17 12:43:13;;;;;;;14.05;3.75;;;;;;;;;;5118635;27;20411;-51
2022/05/17 12:45:44;;;;;;;11.90;4.97;;;;;;;;;;5105083;27;20047;-47
2022/05/17 12:48:14;;;;;;;10.13;3.53;;;;;;;;;;5112101;27;20047;-50
2022/05/17 12:50:45;;;;;;;5.13;4.63;;;;;;;;;;5111112;27;20043;-50
2022/05/17 12:53:10;;;;;;;;;;;;;;;;;;5120715;27;20043;-49
2022/05/17 12:55:36;;;;;;;3.90;3.03;;;;;;;;;;5112587;27;19918;-48
2022/05/17 12:58:10;;;;;;;19.75;7.03;;;;;;;;;;5108150;27;20043;-51
2022/05/17 13:00:36;;;;;;;7.45;4.63;;;;;;;;;;5112339;27;20048;-50
2022/05/17 13:03:18;;;;;;;19.33;5.15;;;;;;;;;;5118697;27;20061;-49
2022/05/17 13:05:48;;;;;;;15.07;9.52;;;;;;;;;;5115471;27;20039;-50
2022/05/17 13:08:24;;;;;;;5.80;3.90;;;;;;;;;;5112380;27;20476;-49
2022/05/17 13:11:08;;;;;;;4.45;3.90;;;;;;;;;;5116267;27;20046;-51
2022/05/17 13:13:35;;;;;;;10.88;3.38;;;;;;;;;;5114312;27;20514;-48
2022/05/17 13:16:38;;;;;;;5.63;4.25;;;;;;;;;;5117558;28;20093;-49
2022/05/17 13:19:04;;;;;;;16.65;7.82;;;;;;;;;;5050454;28;20044;-48
2022/05/17 13:21:30;;;;;;;25.05;5.40;;;;;;;;;;5065179;28;20112;-51
2022/05/17 13:23:57;;;;;;;8.70;3.10;;;;;;;;;;5094114;28;20043;-45
2022/05/17 13:26:25;;;;;;;12.80;2.67;;;;;;;;;;5119795;28;20070;-48
2022/05/17 13:28:51;;;;;;;9.82;4.55;;;;;;;;;;5119886;28;20043;-47
2022/05/17 13:31:23;;;;;;;2.38;1.48;;;;;;;;;;5115523;27;20102;-48
2022/05/17 13:34:00;;;;;;;16.05;6.05;;;;;;;;;;5115334;27;20031;-46
2022/05/17 13:36:39;;;;;;;5.72;5.18;;;;;;;;;;5114099;28;20082;-45
2022/05/17 13:39:18;;;;;;;7.97;5.57;;;;;;;;;;5109197;27;20036;-45
2022/05/17 13:41:43;;;;;;;16.63;5.55;;;;;;;;;;5114608;27;20055;-44
2022/05/17 13:44:09;;;;;;;12.75;6.00;;;;;;;;;;5116540;28;20038;-47
2022/05/17 13:46:38;;;;;;;7.78;3.92;;;;;;;;;;5117683;28;20475;-47
2022/05/17 13:49:08;;;;;;;12.45;7.03;;;;;;;;;;5109860;28;20051;-44
2022/05/17 13:51:42;;;;;;;5.28;4.60;;;;;;;;;;5110115;28;20051;-47
2022/05/17 13:54:07;;;;;;;23.58;6.82;;;;;;;;;;5111013;28;20039;-47
2022/05/17 13:56:35;;;;;;;7.90;5.40;;;;;;;;;;5112202;28;20039;-50
2022/05/17 13:59:02;;;;;;;12.35;4.47;;;;;;;;;;5121234;28;20055;-49
2022/05/17 14:01:31;;;;;;;5.65;4.55;;;;;;;;;;5116110;28;20047;-49
2022/05/17 14:04:05;;;;;;;7.97;4.45;;;;;;;;;;5116781;28;20042;-46
2022/05/17 14:06:47;;;;;;;4.47;3.80;;;;;;;;;;5115601;27;20093;-50
2022/05/17 14:11:58;;;;;;;12.52;5.45;;;;;;;;;;5110111;28;20097;-52
2022/05/17 14:14:24;;;;;;;7.28;4.22;;;;;;;;;;5110991;27;20090;-46
2022/05/17 14:16:54;;;;;;;8.27;4.18;;;;;;;;;;5119159;27;20542;-49
2022/05/17 14:19:21;;;;;;;7.85;4.53;;;;;;;;;;5119478;27;20499;-47
2022/05/17 14:21:49;;;;;;;3.67;3.25;;;;;;;;;;5119894;27;20078;-49
2022/05/17 14:24:15;;;;;;;3.58;3.13;;;;;;;;;;5120914;27;20047;-51
2022/05/17 14:26:44;;;;;;;8.73;4.50;;;;;;;;;;5116857;27;20036;-49
2022/05/17 14:29:09;;;;;;;10.50;4.38;;;;;;;;;;5117786;27;20066;-49
2022/05/17 14:31:37;;;;;;;8.95;4.35;;;;;;;;;;5118582;27;20724;-48
2022/05/17 14:34:04;;;;;;;7.53;4.78;;;;;;;;;;5118288;27;20047;-48
2022/05/17 14:36:30;;;;;;;5.03;3.95;;;;;;;;;;5109711;27;20040;-49
2022/05/17 14:38:56;;;;;;;9.02;4.85;;;;;;;;;;5108647;27;20401;-46
2022/05/17 14:41:22;;;;;;;13.48;7.78;;;;;;;;;;5125711;27;20058;-50
2022/05/17 14:43:47;;;;;;;2.50;2.30;;;;;;;;;;5110034;27;20048;-47
2022/05/17 14:46:14;;;;;;;17.45;8.32;;;;;;;;;;5110624;27;20047;-48
2022/05/17 14:48:40;;;;;;;6.88;3.33;;;;;;;;;;5109200;27;20060;-51
2022/05/17 14:51:06;;;;;;;2.95;1.98;;;;;;;;;;5100347;27;20075;-48
2022/05/17 14:53:32;;;;;;;8.07;5.18;;;;;;;;;;5120302;27;20031;-47
2022/05/17 14:55:58;;;;;;;7.72;5.07;;;;;;;;;;5118185;27;20035;-52
2022/05/17 14:58:23;;;;;;;4.55;3.45;;;;;;;;;;5116752;27;20030;-47
2022/05/17 15:00:49;;;;;;;11.40;5.07;;;;;;;;;;5116984;27;20043;-46
2022/05/17 15:03:23;;;;;;;9.57;4.18;;;;;;;;;;5117132;27;20050;-48
2022/05/17 15:05:49;;;;;;;8.98;5.85;;;;;;;;;;5112993;27;20040;-50